Time;durP1;ratioP1;P1;durP2;ratioP2;P2;SDS_P1;SDS_P2;PMS_P1;PMS_P2;Temp;Humidity;BMP_temperature;BMP_pressure;BME280_temperature;BME280_humidity;BME280_pressure;Samples;Min_cycle;Max_cycle;Signal;HPM_P1;HPM_P2
2022/05/16 00:00:18;;;;;;;4.10;2.08;;;19.70;73.60;;;;;;5045295;28;20583;-42
2022/05/16 00:02:43;;;;;;;4.57;2.00;;;19.70;73.80;;;;;;5035118;28;20506;-42
2022/05/16 00:05:12;;;;;;;6.63;2.15;;;19.60;73.90;;;;;;5045105;28;20503;-41
2022/05/16 00:07:38;;;;;;;4.95;2.20;;;19.60;74.00;;;;;;5045615;28;20031;-41
2022/05/16 00:10:05;;;;;;;6.05;2.30;;;19.60;74.20;;;;;;5045945;28;20032;-41
2022/05/16 00:12:30;;;;;;;5.05;2.00;;;19.50;74.30;;;;;;5044493;28;20495;-41
2022/05/16 00:14:56;;;;;;;3.88;1.83;;;19.50;74.60;;;;;;5046533;28;20032;-42
2022/05/16 00:17:21;;;;;;;3.78;1.92;;;19.40;74.60;;;;;;5045305;28;20140;-41
2022/05/16 00:19:47;;;;;;;2.97;1.60;;;19.40;74.70;;;;;;5044422;28;20036;-42
2022/05/16 00:22:13;;;;;;;3.33;1.80;;;19.40;74.90;;;;;;5045935;28;20032;-41
2022/05/16 00:24:40;;;;;;;5.40;2.28;;;19.30;75.00;;;;;;5048628;28;20114;-40
2022/05/16 00:27:05;;;;;;;5.32;2.05;;;19.30;75.20;;;;;;5047948;28;20376;-41
2022/05/16 00:29:31;;;;;;;4.40;2.15;;;19.30;75.20;;;;;;5048336;28;20025;-41
2022/05/16 00:31:57;;;;;;;4.18;1.83;;;19.20;75.40;;;;;;5047910;28;20021;-41
2022/05/16 00:34:23;;;;;;;5.45;2.10;;;19.20;75.50;;;;;;5047536;28;20496;-40
2022/05/16 00:36:48;;;;;;;6.15;2.40;;;19.20;75.70;;;;;;5049166;28;20021;-41
2022/05/16 00:39:15;;;;;;;5.70;2.03;;;19.10;75.70;;;;;;5049067;28;20029;-41
2022/05/16 00:41:42;;;;;;;5.82;2.30;;;19.20;75.90;;;;;;5048360;28;20031;-42
2022/05/16 00:44:08;;;;;;;3.22;1.63;;;19.10;76.10;;;;;;5048553;28;20025;-41
2022/05/16 00:46:33;;;;;;;7.45;2.45;;;19.10;76.30;;;;;;5048545;28;20021;-42
2022/05/16 00:49:01;;;;;;;3.47;1.55;;;19.00;76.30;;;;;;5048630;28;20029;-42
2022/05/16 00:51:34;;;;;;;7.93;2.45;;;19.00;76.40;;;;;;5048098;28;20051;-40
2022/05/16 00:54:12;;;;;;;3.40;1.80;;;19.00;76.50;;;;;;5045512;28;20132;-41
2022/05/16 00:56:38;;;;;;;4.57;1.95;;;19.00;76.70;;;;;;5047839;28;20094;-41
2022/05/16 00:59:04;;;;;;;5.75;2.20;;;18.90;77.40;;;;;;5048566;28;20523;-41
2022/05/16 01:06:59;;;;;;;5.28;2.08;;;18.80;77.10;;;;;;5048882;28;20083;-41
2022/05/16 01:09:25;;;;;;;6.53;2.28;;;18.80;77.20;;;;;;5047067;28;20025;-41
2022/05/16 01:11:52;;;;;;;4.63;2.08;;;18.80;77.40;;;;;;5048163;28;20095;-42
2022/05/16 01:14:44;;;;;;;4.45;2.17;;;18.70;77.60;;;;;;5048294;28;20024;-42
2022/05/16 01:17:10;;;;;;;5.50;2.50;;;18.70;77.70;;;;;;5048222;28;20021;-40
2022/05/16 01:19:36;;;;;;;5.47;2.00;;;18.70;77.70;;;;;;5047190;28;20021;-42
2022/05/16 01:22:23;;;;;;;5.15;2.17;;;18.70;77.80;;;;;;5048832;28;20083;-41
2022/05/16 01:24:54;;;;;;;4.93;1.90;;;18.60;77.90;;;;;;5047105;28;20024;-41
2022/05/16 01:27:20;;;;;;;4.88;2.25;;;18.60;77.90;;;;;;5048108;28;20025;-41
2022/05/16 01:29:46;;;;;;;3.53;2.40;;;18.60;78.10;;;;;;5045991;28;20461;-41
2022/05/16 01:32:11;;;;;;;6.03;2.17;;;18.60;78.10;;;;;;5048532;28;20029;-41
2022/05/16 01:34:38;;;;;;;3.65;1.90;;;18.50;78.10;;;;;;5047060;28;20075;-41
2022/05/16 01:37:04;;;;;;;4.93;2.25;;;18.60;78.20;;;;;;5047263;28;20029;-40
2022/05/16 01:39:29;;;;;;;4.80;2.17;;;18.50;78.20;;;;;;5047743;28;20041;-40
2022/05/16 01:41:55;;;;;;;8.25;2.33;;;18.60;78.40;;;;;;5047999;28;20053;-41
2022/05/16 01:44:20;;;;;;;6.25;2.30;;;18.50;78.40;;;;;;5046814;28;20029;-41
2022/05/16 01:46:46;;;;;;;4.97;2.25;;;18.50;78.50;;;;;;5047975;28;20021;-41
2022/05/16 01:49:11;;;;;;;4.35;2.15;;;18.50;78.60;;;;;;5046869;28;20555;-42
2022/05/16 01:51:37;;;;;;;5.90;2.67;;;18.50;78.70;;;;;;5046118;28;20033;-41
2022/05/16 01:54:03;;;;;;;7.13;2.13;;;18.50;78.80;;;;;;5047703;28;20031;-43
2022/05/16 01:56:31;;;;;;;3.75;2.22;;;18.40;78.90;;;;;;5046350;28;20424;-42
2022/05/16 01:58:58;;;;;;;5.47;2.65;;;18.40;78.90;;;;;;5046292;28;20041;-42
2022/05/16 02:01:23;;;;;;;5.70;2.92;;;18.40;79.00;;;;;;5047248;28;20056;-42
2022/05/16 02:03:49;;;;;;;5.90;2.30;;;18.40;79.10;;;;;;5047405;28;20027;-40
2022/05/16 02:06:15;;;;;;;6.80;2.35;;;18.40;79.20;;;;;;5046858;28;20021;-40
2022/05/16 02:08:41;;;;;;;8.70;2.67;;;18.30;79.40;;;;;;5046749;28;20064;-41
2022/05/16 02:11:07;;;;;;;4.32;2.03;;;18.30;79.50;;;;;;5047131;28;20593;-39
2022/05/16 02:13:35;;;;;;;5.72;2.40;;;18.20;79.70;;;;;;5046296;28;20542;-42
2022/05/16 02:16:01;;;;;;;5.35;2.05;;;18.20;79.70;;;;;;5046458;28;20028;-41
2022/05/16 02:18:27;;;;;;;5.38;2.50;;;18.20;79.80;;;;;;5046718;28;20151;-41
2022/05/16 02:24:38;;;;;;;7.45;2.85;;;18.20;79.90;;;;;;5046000;28;20082;-40
2022/05/16 02:26:23;;;;;;;4.55;2.33;;;18.20;80.20;;;;;;5046238;28;20119;-42
2022/05/16 02:28:48;;;;;;;6.93;2.42;;;18.20;80.20;;;;;;5046891;28;20108;-41
2022/05/16 02:31:14;;;;;;;4.80;2.17;;;18.10;80.30;;;;;;5046718;28;20711;-41
2022/05/16 02:33:39;;;;;;;4.65;2.40;;;18.10;80.50;;;;;;5045322;28;20025;-40
2022/05/16 02:36:05;;;;;;;8.27;2.70;;;18.10;80.60;;;;;;5046943;28;20130;-39
2022/05/16 02:38:30;;;;;;;4.30;2.50;;;18.10;80.70;;;;;;5046518;28;20491;-37
2022/05/16 02:40:56;;;;;;;5.32;2.13;;;18.10;81.00;;;;;;5045302;28;20613;-41
2022/05/16 02:43:21;;;;;;;6.53;2.70;;;18.00;81.00;;;;;;5046122;28;20975;-41
2022/05/16 02:45:47;;;;;;;4.60;2.58;;;18.00;81.10;;;;;;5045083;28;20029;-41
2022/05/16 02:48:12;;;;;;;7.47;2.60;;;18.00;81.10;;;;;;5045735;28;20017;-41
2022/05/16 02:50:38;;;;;;;7.57;2.88;;;18.00;81.10;;;;;;5046505;28;20025;-43
2022/05/16 02:53:03;;;;;;;5.18;2.30;;;18.00;81.30;;;;;;5046210;28;20024;-41
2022/05/16 02:55:31;;;;;;;3.92;2.35;;;17.90;81.30;;;;;;5045089;28;20955;-40
2022/05/16 02:57:57;;;;;;;5.80;2.47;;;17.90;81.30;;;;;;5044779;28;20453;-42
2022/05/16 03:00:22;;;;;;;5.18;2.50;;;17.90;81.40;;;;;;5046332;28;20065;-39
2022/05/16 03:02:48;;;;;;;4.75;2.20;;;17.90;81.50;;;;;;5044932;28;20028;-40
2022/05/16 03:05:14;;;;;;;5.80;2.28;;;17.90;81.50;;;;;;5045734;28;20083;-41
2022/05/16 03:07:40;;;;;;;4.63;2.10;;;17.80;81.60;;;;;;5046355;28;20017;-40
2022/05/16 03:10:06;;;;;;;5.32;2.58;;;17.80;81.60;;;;;;5045278;28;20494;-41
2022/05/16 03:12:31;;;;;;;3.35;2.22;;;17.80;81.80;;;;;;5045500;28;20053;-41
2022/05/16 03:14:57;;;;;;;6.80;2.22;;;17.80;81.80;;;;;;5046043;28;20483;-42
2022/05/16 03:17:23;;;;;;;3.97;2.20;;;17.70;81.90;;;;;;5045855;28;20025;-41
2022/05/16 03:19:49;;;;;;;5.82;2.55;;;17.80;82.10;;;;;;5046246;28;20033;-40
2022/05/16 03:22:14;;;;;;;4.78;2.75;;;17.80;82.30;;;;;;5044950;28;20270;-41
2022/05/16 03:24:41;;;;;;;5.53;2.50;;;17.70;82.30;;;;;;5045473;28;20067;-41
2022/05/16 03:27:07;;;;;;;6.28;2.42;;;17.70;82.50;;;;;;5045692;28;20342;-41
2022/05/16 03:29:33;;;;;;;5.07;2.55;;;17.70;82.50;;;;;;5044669;28;20021;-41
2022/05/16 03:31:58;;;;;;;5.85;2.38;;;17.70;82.50;;;;;;5045993;28;20350;-40
2022/05/16 03:34:24;;;;;;;4.70;2.38;;;17.70;82.60;;;;;;5045573;28;20534;-40
2022/05/16 03:36:49;;;;;;;5.43;2.20;;;17.60;82.70;;;;;;5045746;28;20134;-40
2022/05/16 03:41:59;;;;;;;6.10;2.70;;;17.60;82.80;;;;;;5046457;28;20052;-41
2022/05/16 03:44:25;;;;;;;6.00;2.50;;;17.50;83.10;;;;;;5044887;28;20021;-41
2022/05/16 03:46:51;;;;;;;6.07;2.72;;;17.50;83.10;;;;;;5045906;28;20046;-41
2022/05/16 03:49:18;;;;;;;5.88;2.42;;;17.50;83.20;;;;;;5045839;28;20033;-40
2022/05/16 03:51:43;;;;;;;6.13;2.38;;;17.50;83.20;;;;;;5045086;28;20389;-40
2022/05/16 03:54:09;;;;;;;5.40;2.20;;;17.50;83.30;;;;;;5045804;28;20029;-42
2022/05/16 03:56:35;;;;;;;4.55;2.60;;;17.50;83.40;;;;;;5045247;28;20060;-40
2022/05/16 03:59:00;;;;;;;5.82;2.53;;;17.50;83.50;;;;;;5048145;28;20033;-42
2022/05/16 04:01:27;;;;;;;6.70;2.70;;;17.40;83.60;;;;;;5049291;28;20033;-42
2022/05/16 04:03:53;;;;;;;6.07;2.35;;;17.40;83.70;;;;;;5049791;28;20020;-40
2022/05/16 04:06:18;;;;;;;5.78;2.75;;;17.50;83.80;;;;;;5049073;28;20392;-42
2022/05/16 04:08:44;;;;;;;5.65;2.88;;;17.40;83.90;;;;;;5048771;28;20055;-41
2022/05/16 04:11:14;;;;;;;5.68;2.50;;;17.40;83.90;;;;;;5047930;28;20029;-41
2022/05/16 04:13:41;;;;;;;3.60;2.13;;;17.40;84.10;;;;;;5048555;28;20028;-42
2022/05/16 04:16:07;;;;;;;6.32;2.60;;;17.40;84.20;;;;;;5048730;28;20548;-42
2022/05/16 04:18:33;;;;;;;7.35;3.10;;;17.40;84.30;;;;;;5047810;28;20721;-42
2022/05/16 04:20:59;;;;;;;5.13;2.50;;;17.40;84.40;;;;;;5049370;28;20037;-40
2022/05/16 04:23:25;;;;;;;4.65;2.40;;;17.40;84.50;;;;;;5048822;28;20107;-42
2022/05/16 04:25:50;;;;;;;3.90;2.22;;;17.40;84.60;;;;;;5049194;28;20025;-41
2022/05/16 04:28:16;;;;;;;4.43;2.35;;;17.30;84.60;;;;;;5049091;28;20446;-42
2022/05/16 04:30:42;;;;;;;5.63;2.50;;;17.30;84.70;;;;;;5048324;28;20063;-42
2022/05/16 04:33:08;;;;;;;5.82;2.60;;;17.30;85.30;;;;;;5048655;28;20021;-41
2022/05/16 04:35:36;;;;;;;4.35;2.20;;;17.30;84.80;;;;;;5047811;28;20017;-41
2022/05/16 04:38:05;;;;;;;6.72;2.60;;;17.30;84.90;;;;;;5048603;28;20044;-38
2022/05/16 04:40:31;;;;;;;3.55;2.28;;;17.30;84.90;;;;;;5047696;28;20037;-41
2022/05/16 04:42:57;;;;;;;3.70;2.03;;;17.30;85.00;;;;;;5049149;28;20116;-41
2022/05/16 04:45:26;;;;;;;3.47;2.38;;;17.30;85.00;;;;;;5048410;28;20108;-41
2022/05/16 04:47:54;;;;;;;4.28;2.50;;;17.30;85.10;;;;;;5048351;28;20025;-42
2022/05/16 04:50:23;;;;;;;4.82;2.30;;;17.30;85.20;;;;;;5048339;28;20132;-41
2022/05/16 04:52:49;;;;;;;3.95;2.08;;;17.40;85.30;;;;;;5048320;28;20029;-39
2022/05/16 04:55:15;;;;;;;4.97;2.70;;;17.30;85.30;;;;;;5047432;28;20074;-40
2022/05/16 04:57:41;;;;;;;4.07;2.22;;;17.40;85.50;;;;;;5048431;28;20017;-41
2022/05/16 05:00:09;;;;;;;4.55;2.63;;;17.40;85.50;;;;;;5047668;28;20039;-42
2022/05/16 05:02:34;;;;;;;6.45;2.78;;;17.40;85.50;;;;;;5046486;28;20029;-41
2022/05/16 05:05:00;;;;;;;5.05;2.50;;;17.40;85.40;;;;;;5047839;28;20044;-41
2022/05/16 05:07:26;;;;;;;4.93;2.65;;;17.40;85.50;;;;;;5046466;28;20032;-41
2022/05/16 05:15:20;;;;;;;5.40;2.35;;;17.50;85.60;;;;;;5046964;28;20051;-41
2022/05/16 05:17:46;;;;;;;4.53;2.50;;;17.50;85.60;;;;;;5047610;28;20017;-40
2022/05/16 05:20:13;;;;;;;4.97;2.50;;;17.50;85.70;;;;;;5048105;28;20043;-41
2022/05/16 05:22:43;;;;;;;5.25;2.50;;;17.60;85.80;;;;;;5047193;28;20186;-40
2022/05/16 05:25:12;;;;;;;4.22;2.45;;;17.60;85.80;;;;;;5048059;28;20029;-41
2022/05/16 05:27:41;;;;;;;5.18;2.35;;;17.60;85.90;;;;;;5046933;28;20061;-43
2022/05/16 05:30:09;;;;;;;3.72;2.30;;;17.60;86.00;;;;;;5047379;28;20029;-40
2022/05/16 05:32:35;;;;;;;5.07;2.63;;;17.70;86.10;;;;;;5046861;28;20436;-42
2022/05/16 05:35:02;;;;;;;4.32;2.40;;;17.70;86.10;;;;;;5047682;28;20025;-41
2022/05/16 05:37:27;;;;;;;7.40;3.00;;;17.70;86.10;;;;;;5045944;28;20071;-42
2022/05/16 05:39:54;;;;;;;4.63;2.50;;;17.80;86.20;;;;;;5047775;28;20073;-40
2022/05/16 05:42:20;;;;;;;3.42;2.33;;;17.80;86.20;;;;;;5048065;28;20020;-41
2022/05/16 05:44:45;;;;;;;3.53;2.30;;;17.90;86.20;;;;;;5046095;28;20025;-41
2022/05/16 05:47:11;;;;;;;4.22;2.35;;;17.90;86.20;;;;;;5041533;28;20025;-41
2022/05/16 05:49:37;;;;;;;4.65;2.28;;;18.00;86.20;;;;;;5046512;28;20075;-42
2022/05/16 05:52:03;;;;;;;4.13;2.30;;;18.00;86.20;;;;;;5045009;28;20017;-41
2022/05/16 05:54:32;;;;;;;4.40;2.33;;;18.00;86.20;;;;;;5041194;28;20019;-41
2022/05/16 05:56:57;;;;;;;2.30;1.70;;;18.00;86.30;;;;;;5055042;28;20543;-41
2022/05/16 05:59:24;;;;;;;5.70;2.50;;;18.10;86.40;;;;;;5044340;28;20064;-41
2022/05/16 06:01:49;;;;;;;4.95;2.55;;;18.10;86.30;;;;;;5046263;28;20452;-41
2022/05/16 06:04:15;;;;;;;4.72;2.72;;;18.10;86.30;;;;;;5045712;28;20017;-40
2022/05/16 06:06:46;;;;;;;6.45;2.92;;;18.20;86.50;;;;;;5046334;28;20380;-40
2022/05/16 06:09:12;;;;;;;5.00;2.80;;;18.20;86.40;;;;;;5045924;28;20025;-40
2022/05/16 06:11:37;;;;;;;6.38;2.83;;;18.30;86.40;;;;;;5045619;28;20037;-38
2022/05/16 06:14:03;;;;;;;6.60;2.90;;;18.40;86.30;;;;;;5045465;28;20339;-40
2022/05/16 06:16:28;;;;;;;6.28;2.80;;;18.60;86.20;;;;;;5046187;28;20473;-38
2022/05/16 06:18:54;;;;;;;5.45;3.20;;;18.70;85.90;;;;;;5044177;28;20075;-36
2022/05/16 06:21:20;;;;;;;5.75;2.70;;;18.80;85.70;;;;;;5044803;28;20580;-41
2022/05/16 06:23:45;;;;;;;7.30;3.03;;;18.90;85.60;;;;;;5045451;28;20032;-41
2022/05/16 06:26:11;;;;;;;4.80;2.75;;;18.90;85.60;;;;;;5044879;28;20041;-40
2022/05/16 06:28:40;;;;;;;7.10;3.15;;;19.00;85.70;;;;;;5045472;28;20013;-41
2022/05/16 06:31:08;;;;;;;7.32;2.85;;;19.00;85.80;;;;;;5046659;28;20032;-40
2022/05/16 06:33:34;;;;;;;8.25;3.10;;;19.00;86.00;;;;;;5044276;28;20025;-41
2022/05/16 06:36:01;;;;;;;8.00;3.40;;;18.90;86.10;;;;;;5046514;28;20024;-40
2022/05/16 06:38:33;;;;;;;3.35;2.60;;;18.90;86.30;;;;;;5045200;28;20074;-42
2022/05/16 06:40:59;;;;;;;8.68;2.90;;;18.90;86.40;;;;;;5034835;28;20500;-42
2022/05/16 06:43:27;;;;;;;3.63;2.47;;;18.90;86.40;;;;;;5045685;28;20079;-41
2022/05/16 06:45:56;;;;;;;5.45;2.88;;;19.00;86.50;;;;;;5045753;28;20032;-39
2022/05/16 06:48:22;;;;;;;5.05;2.90;;;19.10;86.50;;;;;;5044347;28;20025;-39
2022/05/16 06:50:49;;;;;;;5.22;2.90;;;19.10;86.40;;;;;;5045107;28;20017;-42
2022/05/16 06:53:21;;;;;;;6.53;2.60;;;19.20;86.40;;;;;;5045140;28;20163;-43
2022/05/16 06:55:46;;;;;;;5.10;2.83;;;19.30;86.40;;;;;;5045948;28;20028;-39
2022/05/16 06:58:12;;;;;;;4.50;2.22;;;19.40;86.30;;;;;;5045943;28;20045;-42
2022/05/16 07:00:38;;;;;;;3.00;2.50;;;19.50;86.10;;;;;;5045549;28;20047;-41
2022/05/16 07:03:04;;;;;;;3.38;2.10;;;19.70;86.10;;;;;;5046227;28;20017;-41
2022/05/16 07:05:31;;;;;;;4.50;2.40;;;19.70;85.90;;;;;;5045835;28;20039;-42
2022/05/16 07:07:57;;;;;;;3.92;2.38;;;19.80;86.00;;;;;;5045371;28;20032;-41
2022/05/16 07:10:24;;;;;;;6.82;2.60;;;19.80;86.00;;;;;;5045459;28;20025;-41
2022/05/16 07:12:49;;;;;;;6.40;3.05;;;19.90;86.00;;;;;;5046544;28;20044;-42
2022/05/16 07:15:15;;;;;;;5.18;2.78;;;19.90;86.00;;;;;;5044858;28;20408;-41
2022/05/16 07:17:40;;;;;;;4.45;2.47;;;20.00;86.10;;;;;;5046039;28;20124;-42
2022/05/16 07:20:06;;;;;;;4.40;2.40;;;20.10;86.00;;;;;;5045788;28;20029;-39
2022/05/16 07:22:32;;;;;;;4.28;2.40;;;20.20;85.90;;;;;;5044311;28;20423;-43
2022/05/16 07:24:59;;;;;;;4.45;2.40;;;20.30;85.80;;;;;;5046373;28;20033;-43
2022/05/16 07:30:10;;;;;;;5.20;2.75;;;20.60;85.70;;;;;;5045493;28;20044;-41
2022/05/16 07:32:41;;;;;;;6.03;2.80;;;20.80;85.50;;;;;;5047187;28;20592;-41
2022/05/16 07:35:13;;;;;;;5.10;2.63;;;20.90;85.30;;;;;;5048152;28;20111;-41
2022/05/16 07:37:38;;;;;;;5.68;2.70;;;21.00;85.10;;;;;;5049436;28;20561;-39
2022/05/16 07:40:09;;;;;;;6.00;2.70;;;21.10;85.00;;;;;;5049604;28;20033;-42
2022/05/16 07:42:35;;;;;;;4.90;2.45;;;21.20;85.00;;;;;;5045256;28;20025;-43
2022/05/16 07:45:02;;;;;;;5.00;2.65;;;21.20;84.90;;;;;;5050082;28;20048;-40
2022/05/16 07:47:30;;;;;;;3.85;2.65;;;21.20;84.90;;;;;;5049597;28;20028;-42
2022/05/16 07:49:57;;;;;;;6.15;2.78;;;21.20;85.00;;;;;;5049994;28;20037;-42
2022/05/16 07:52:22;;;;;;;5.53;2.72;;;21.20;85.10;;;;;;5049206;28;20029;-41
2022/05/16 07:54:48;;;;;;;4.68;2.67;;;21.10;85.10;;;;;;5049955;28;20028;-42
2022/05/16 07:57:13;;;;;;;3.47;2.15;;;21.20;85.30;;;;;;5048817;28;20031;-41
2022/05/16 07:59:41;;;;;;;3.17;2.25;;;21.20;85.40;;;;;;5049282;28;20049;-41
2022/05/16 08:02:06;;;;;;;3.58;2.20;;;21.30;85.20;;;;;;5049432;28;20032;-40
2022/05/16 08:04:32;;;;;;;4.72;2.45;;;21.30;85.00;;;;;;5047555;28;20025;-39
2022/05/16 08:06:58;;;;;;;4.85;2.63;;;21.40;85.00;;;;;;5049211;28;20468;-41
2022/05/16 08:12:09;;;;;;;5.40;2.53;;;21.60;84.90;;;;;;5047668;28;20613;-41
2022/05/16 08:14:35;;;;;;;4.30;2.20;;;21.70;84.70;;;;;;5048067;28;20538;-41
2022/05/16 08:17:00;;;;;;;3.85;2.20;;;21.80;84.70;;;;;;5047696;28;20013;-42
2022/05/16 08:19:29;;;;;;;5.13;2.30;;;21.90;84.70;;;;;;5046310;28;20035;-37
2022/05/16 08:21:54;;;;;;;3.45;2.00;;;22.00;84.60;;;;;;5048783;28;20037;-41
2022/05/16 08:24:20;;;;;;;5.40;1.95;;;22.10;84.40;;;;;;5047803;28;20457;-41
2022/05/16 08:26:46;;;;;;;2.67;2.20;;;22.20;84.30;;;;;;5048046;28;20298;-40
2022/05/16 08:29:12;;;;;;;5.03;2.40;;;22.30;84.20;;;;;;5047562;28;20074;-39
2022/05/16 08:31:37;;;;;;;4.15;2.42;;;22.40;84.20;;;;;;5047661;28;20136;-42
2022/05/16 08:34:03;;;;;;;4.90;2.30;;;22.40;84.80;;;;;;5048663;28;20096;-40
2022/05/16 08:42:02;;;;;;;4.30;2.22;;;22.60;84.00;;;;;;5047737;28;20036;-43
2022/05/16 08:44:43;;;;;;;4.45;2.28;;;22.60;84.10;;;;;;5046230;28;20574;-42
2022/05/16 08:47:29;;;;;;;3.00;2.10;;;22.50;84.00;;;;;;5047468;28;20110;-41
2022/05/16 08:49:57;;;;;;;3.03;2.30;;;22.50;84.10;;;;;;5048472;28;20023;-41
2022/05/16 08:52:36;;;;;;;3.28;2.10;;;22.50;84.20;;;;;;5047585;28;20028;-42
2022/05/16 08:55:32;;;;;;;3.80;2.10;;;22.40;84.50;;;;;;5045553;28;20025;-41
2022/05/16 08:58:09;;;;;;;3.55;2.15;;;22.40;84.70;;;;;;5048982;28;20017;-44
2022/05/16 09:00:52;;;;;;;5.78;2.28;;;22.50;84.50;;;;;;5046752;28;20068;-42
2022/05/16 09:03:26;;;;;;;3.10;2.33;;;22.40;84.30;;;;;;5048966;28;20059;-41
2022/05/16 09:06:12;;;;;;;3.30;2.28;;;22.50;84.20;;;;;;5038524;28;20047;-41
2022/05/16 09:08:58;;;;;;;5.43;2.65;;;22.60;84.30;;;;;;5047675;28;20083;-42
2022/05/16 09:11:46;;;;;;;2.70;2.00;;;22.70;84.20;;;;;;5048216;28;20032;-40
2022/05/16 09:14:25;;;;;;;2.67;1.98;;;22.80;84.10;;;;;;5047729;28;20504;-42
2022/05/16 09:17:00;;;;;;;3.72;2.80;;;22.90;84.00;;;;;;5047955;28;20036;-41
2022/05/16 09:19:55;;;;;;;3.67;2.47;;;23.00;83.90;;;;;;5045033;28;20025;-41
2022/05/16 09:22:31;;;;;;;3.30;2.00;;;23.10;83.80;;;;;;5046726;28;20079;-41
2022/05/16 09:25:02;;;;;;;2.28;2.08;;;23.20;83.50;;;;;;5048383;28;20086;-41
2022/05/16 09:30:19;;;;;;;3.08;2.05;;;23.40;83.20;;;;;;5047690;28;20535;-41
2022/05/16 09:32:50;;;;;;;4.28;2.20;;;23.50;82.90;;;;;;5047512;28;20492;-42
2022/05/16 09:35:37;;;;;;;4.57;2.75;;;23.60;82.70;;;;;;5046488;28;20020;-42
2022/05/16 09:38:04;;;;;;;2.45;2.08;;;23.70;82.40;;;;;;5047331;28;20543;-42
2022/05/16 09:40:38;;;;;;;4.22;2.58;;;23.80;82.40;;;;;;5045752;28;20033;-41
2022/05/16 09:43:13;;;;;;;3.42;2.17;;;23.90;82.30;;;;;;5046656;28;20036;-42
2022/05/16 09:45:45;;;;;;;3.80;2.40;;;23.90;82.00;;;;;;5047149;28;20036;-41
2022/05/16 09:48:31;;;;;;;4.95;2.35;;;23.90;81.90;;;;;;5047678;28;20036;-41
2022/05/16 09:51:02;;;;;;;5.30;1.92;;;23.90;82.10;;;;;;5046861;28;20789;-41
2022/05/16 09:53:42;;;;;;;3.47;2.05;;;23.90;82.10;;;;;;5047879;28;20029;-41
2022/05/16 09:56:37;;;;;;;2.22;2.03;;;24.00;82.10;;;;;;5048012;28;20017;-41
2022/05/16 09:59:04;;;;;;;4.20;1.90;;;23.90;82.10;;;;;;5010733;28;20116;-42
2022/05/16 10:01:34;;;;;;;3.92;2.10;;;24.00;82.20;;;;;;5042611;28;20041;-39
2022/05/16 10:04:12;;;;;;;2.90;2.05;;;24.10;82.10;;;;;;5047102;28;20715;-39
2022/05/16 10:06:41;;;;;;;1.50;1.40;;;24.20;82.00;;;;;;5047013;28;20112;-40
2022/05/16 10:09:15;;;;;;;2.30;1.80;;;24.30;81.80;;;;;;5047766;28;20032;-41
2022/05/16 10:11:45;;;;;;;2.85;2.00;;;24.40;81.50;;;;;;5046546;28;20040;-41
2022/05/16 10:14:11;;;;;;;2.50;1.75;;;24.40;81.30;;;;;;5047680;28;20041;-41
2022/05/16 10:16:45;;;;;;;5.03;2.25;;;24.40;81.10;;;;;;5046737;28;20104;-41
2022/05/16 10:19:15;;;;;;;3.70;2.05;;;24.30;81.10;;;;;;5047110;28;20424;-39
2022/05/16 10:22:01;;;;;;;2.92;1.90;;;24.30;81.10;;;;;;5047237;28;20063;-39
2022/05/16 10:24:31;;;;;;;1.70;1.40;;;24.30;81.10;;;;;;5046455;28;20045;-41
2022/05/16 10:27:02;;;;;;;2.15;1.30;;;24.40;81.20;;;;;;5044256;28;20538;-41
2022/05/16 10:29:31;;;;;;;2.35;1.67;;;24.60;80.80;;;;;;5046676;28;20056;-44
2022/05/16 10:34:58;;;;;;;1.90;1.60;;;25.00;80.00;;;;;;5047180;28;20052;-40
2022/05/16 10:37:25;;;;;;;2.28;1.73;;;25.20;79.60;;;;;;5047482;28;20025;-42
2022/05/16 10:40:03;;;;;;;3.03;1.48;;;25.40;79.40;;;;;;5046391;28;20033;-41
2022/05/16 10:42:54;;;;;;;2.78;1.48;;;25.50;79.30;;;;;;5045445;28;20493;-42
2022/05/16 10:45:24;;;;;;;1.80;1.40;;;25.70;79.00;;;;;;5046363;28;20040;-40
2022/05/16 10:48:00;;;;;;;1.90;1.23;;;25.70;78.80;;;;;;5047101;28;20025;-41
2022/05/16 10:50:43;;;;;;;3.35;1.90;;;25.80;78.60;;;;;;5046544;28;20021;-43
2022/05/16 10:53:23;;;;;;;2.25;1.98;;;25.90;78.70;;;;;;5045579;28;20467;-42
2022/05/16 10:56:03;;;;;;;3.83;2.00;;;25.90;78.70;;;;;;5027500;28;20029;-42
2022/05/16 10:58:47;;;;;;;3.63;1.95;;;25.90;78.70;;;;;;5042706;28;20400;-42
2022/05/16 11:01:21;;;;;;;4.15;2.30;;;26.00;78.70;;;;;;5026391;28;20378;-43
2022/05/16 11:03:56;;;;;;;3.35;2.10;;;26.00;78.60;;;;;;5043523;28;20033;-42
2022/05/16 11:06:32;;;;;;;3.28;1.83;;;26.10;78.40;;;;;;5045513;28;20035;-43
2022/05/16 11:09:22;;;;;;;4.63;2.75;;;26.10;78.20;;;;;;5047343;28;20158;-41
2022/05/16 11:12:30;;;;;;;3.15;1.75;;;26.20;78.10;;;;;;5046080;28;20086;-42
2022/05/16 11:15:20;;;;;;;2.42;1.80;;;26.30;78.30;;;;;;4983942;28;20500;-42
2022/05/16 11:18:19;;;;;;;2.90;2.05;;;26.30;77.80;;;;;;5028385;28;20102;-42
2022/05/16 11:20:54;;;;;;;4.63;2.83;;;26.30;77.70;;;;;;5038850;28;20048;-41
2022/05/16 11:23:25;;;;;;;1.50;1.33;;;26.30;78.00;;;;;;5046106;28;20095;-41
2022/05/16 11:26:03;;;;;;;2.00;1.60;;;26.30;78.00;;;;;;5046313;28;20036;-44
2022/05/16 11:29:19;;;;;;;2.35;1.60;;;26.40;77.90;;;;;;5045087;28;20039;-42
2022/05/16 11:31:56;;;;;;;2.42;2.03;;;26.30;77.60;;;;;;5046430;28;20762;-42
2022/05/16 11:34:51;;;;;;;2.45;1.73;;;26.30;77.70;;;;;;5045230;28;20052;-42
2022/05/16 11:37:52;;;;;;;4.28;2.00;;;26.30;77.80;;;;;;5026290;28;20381;-42
2022/05/16 11:40:29;;;;;;;2.03;1.30;;;26.20;77.70;;;;;;5045877;28;20039;-42
2022/05/16 11:43:11;;;;;;;2.95;1.92;;;26.30;77.70;;;;;;5046120;28;20033;-40
2022/05/16 11:45:57;;;;;;;;;;;26.30;77.80;;;;;;5045529;28;20340;-41
2022/05/16 11:48:49;;;;;;;2.55;1.63;;;26.30;77.90;;;;;;5045242;28;20280;-42
2022/05/16 11:51:22;;;;;;;;;;;26.20;77.90;;;;;;5045954;28;20105;-40
2022/05/16 11:53:54;;;;;;;3.00;2.40;;;26.10;78.30;;;;;;5045687;28;19908;-44
2022/05/16 12:02:50;;;;;;;2.53;1.85;;;25.30;81.30;;;;;;5041237;28;20056;-42
2022/05/16 12:05:21;;;;;;;5.63;2.00;;;25.20;81.90;;;;;;5045877;28;20078;-41
2022/05/16 12:07:56;;;;;;;6.82;2.40;;;25.00;82.90;;;;;;5044713;28;20024;-41
2022/05/16 12:10:25;;;;;;;2.92;1.90;;;25.00;83.30;;;;;;5044782;28;20115;-42
2022/05/16 12:13:09;;;;;;;1.98;1.50;;;25.00;83.80;;;;;;5046310;28;20032;-42
2022/05/16 12:15:35;;;;;;;3.88;2.20;;;25.00;84.60;;;;;;5044633;28;20530;-42
2022/05/16 12:18:07;;;;;;;4.60;2.80;;;25.00;85.90;;;;;;5045345;28;20021;-42
2022/05/16 12:20:58;;;;;;;3.30;3.00;;;25.00;88.00;;;;;;5048221;28;20040;-41
2022/05/16 12:23:51;;;;;;;4.43;2.88;;;24.90;89.10;;;;;;5048318;28;20039;-41
2022/05/16 12:26:26;;;;;;;3.45;2.60;;;24.70;89.90;;;;;;5045462;28;20116;-41
2022/05/16 12:29:10;;;;;;;4.68;2.88;;;24.60;90.00;;;;;;5049165;28;20075;-41
2022/05/16 12:31:45;;;;;;;4.57;3.10;;;24.50;90.30;;;;;;5047205;28;20025;-41
2022/05/16 12:34:29;;;;;;;4.07;2.80;;;24.40;90.40;;;;;;5028306;28;20053;-42
2022/05/16 12:36:56;;;;;;;3.83;2.63;;;24.30;90.50;;;;;;5045613;28;20489;-40
2022/05/16 12:39:41;;;;;;;3.55;2.50;;;24.30;90.50;;;;;;5047620;28;20040;-41
2022/05/16 12:42:07;;;;;;;3.17;2.47;;;24.30;90.70;;;;;;5047842;28;20068;-40
2022/05/16 12:44:47;;;;;;;3.95;2.30;;;24.20;90.70;;;;;;5047886;28;20064;-41
2022/05/16 12:47:27;;;;;;;3.28;2.67;;;24.20;90.80;;;;;;5048921;28;20021;-41
2022/05/16 12:50:22;;;;;;;4.18;2.72;;;24.20;90.90;;;;;;5048831;28;20473;-41
2022/05/16 12:53:11;;;;;;;3.42;2.50;;;24.10;90.90;;;;;;4975134;28;20162;-41
2022/05/16 12:56:04;;;;;;;4.05;2.55;;;24.10;90.90;;;;;;5047621;28;20106;-41
2022/05/16 12:58:56;;;;;;;3.10;2.80;;;24.10;90.90;;;;;;5047805;28;20464;-40
2022/05/16 13:01:36;;;;;;;7.45;3.38;;;24.10;91.20;;;;;;5046541;28;20162;-41
2022/05/16 13:04:19;;;;;;;5.93;3.40;;;24.00;91.30;;;;;;5048411;28;20060;-42
2022/05/16 13:07:09;;;;;;;4.55;3.10;;;23.90;91.50;;;;;;5047183;28;20052;-40
2022/05/16 13:09:52;;;;;;;4.05;3.33;;;23.90;91.60;;;;;;5048615;28;20025;-40
2022/05/16 13:12:33;;;;;;;3.85;3.42;;;23.90;91.60;;;;;;5037488;28;20029;-38
2022/05/16 13:15:18;;;;;;;5.20;4.60;;;24.00;91.80;;;;;;5027314;28;20041;-38
2022/05/16 13:17:49;;;;;;;5.20;4.18;;;24.10;92.00;;;;;;5038901;28;20025;-41
2022/05/16 13:20:26;;;;;;;8.63;7.72;;;24.10;92.20;;;;;;5045234;28;20531;-39
2022/05/16 13:22:54;;;;;;;10.63;9.05;;;24.10;92.50;;;;;;5047219;28;20111;-39
2022/05/16 13:25:22;;;;;;;10.80;7.93;;;23.80;92.40;;;;;;5046617;28;20377;-39
2022/05/16 13:30:45;;;;;;;8.95;6.03;;;23.40;92.60;;;;;;5047226;28;20040;-41
2022/05/16 13:33:28;;;;;;;5.95;4.72;;;23.30;92.70;;;;;;5046639;28;20033;-41
2022/05/16 13:35:54;;;;;;;6.53;4.90;;;23.20;92.60;;;;;;5046404;28;20032;-41
2022/05/16 13:38:19;;;;;;;7.07;4.47;;;23.10;92.50;;;;;;5046940;28;20029;-42
2022/05/16 13:40:47;;;;;;;5.97;4.00;;;23.00;92.60;;;;;;5045510;28;20064;-41
2022/05/16 13:43:16;;;;;;;6.10;4.25;;;23.00;92.60;;;;;;5046094;28;20432;-42
2022/05/16 13:45:42;;;;;;;7.05;4.60;;;23.00;92.70;;;;;;5046825;28;20119;-41
2022/05/16 13:48:12;;;;;;;5.68;4.53;;;23.00;92.70;;;;;;5046178;28;20021;-42